Time;durP1;ratioP1;P1;durP2;ratioP2;P2;SDS_P1;SDS_P2;PMS_P1;PMS_P2;Temp;Humidity;BMP_temperature;BMP_pressure;BME280_temperature;BME280_humidity;BME280_pressure;Samples;Min_cycle;Max_cycle;Signal;HPM_P1;HPM_P2
2021/03/29 00:00:49;;;;;;;13.70;3.77;;;10.50;99.90;;;;;;5055249;28;20219;-79
2021/03/29 00:03:16;;;;;;;11.30;3.70;;;10.50;99.90;;;;;;5051765;28;20283;-77
2021/03/29 00:05:43;;;;;;;11.90;3.70;;;10.60;99.90;;;;;;5051644;28;20254;-79
2021/03/29 00:08:13;;;;;;;15.67;4.33;;;10.60;99.90;;;;;;5059053;28;20337;-78
2021/03/29 00:10:41;;;;;;;12.27;3.77;;;10.60;99.90;;;;;;5063954;28;20669;-77
2021/03/29 00:13:09;;;;;;;12.37;4.00;;;10.60;99.90;;;;;;5061216;28;20680;-78
2021/03/29 00:15:38;;;;;;;11.40;3.50;;;10.60;99.90;;;;;;5068223;28;20299;-77
2021/03/29 00:18:07;;;;;;;15.57;4.73;;;10.70;99.90;;;;;;5070720;28;20282;-80
2021/03/29 00:20:34;;;;;;;12.70;4.10;;;10.60;99.90;;;;;;5047138;28;20223;-80
2021/03/29 00:23:01;;;;;;;9.50;3.60;;;10.70;99.90;;;;;;5053722;28;20719;-80
2021/03/29 00:25:31;;;;;;;9.03;3.90;;;10.60;99.90;;;;;;5053285;28;20281;-79
2021/03/29 00:27:58;;;;;;;11.90;3.97;;;10.60;99.90;;;;;;5054768;28;20198;-77
2021/03/29 00:30:28;;;;;;;10.33;3.47;;;10.60;99.90;;;;;;5064133;28;20292;-78
2021/03/29 00:32:55;;;;;;;12.50;3.93;;;10.60;99.90;;;;;;5053827;28;20617;-77
2021/03/29 00:35:24;;;;;;;8.87;3.67;;;10.60;99.90;;;;;;5068011;28;20231;-78
2021/03/29 00:37:53;;;;;;;13.70;4.17;;;10.60;99.90;;;;;;5046593;28;20287;-77
2021/03/29 00:40:21;;;;;;;26.90;4.63;;;10.60;99.90;;;;;;5067260;28;20288;-77
2021/03/29 00:42:50;;;;;;;9.73;3.83;;;10.60;99.90;;;;;;5062640;28;20250;-78
2021/03/29 00:45:19;;;;;;;9.83;3.80;;;10.50;99.90;;;;;;5054984;28;20200;-77
2021/03/29 00:47:47;;;;;;;13.47;4.07;;;10.60;99.90;;;;;;5059758;28;20206;-80
2021/03/29 00:50:16;;;;;;;10.73;3.60;;;10.50;99.90;;;;;;5051548;28;20222;-76
2021/03/29 00:52:43;;;;;;;15.83;3.67;;;10.50;99.90;;;;;;5051178;28;20290;-77
2021/03/29 00:55:14;;;;;;;11.03;4.37;;;10.50;99.90;;;;;;5056804;28;20684;-78
2021/03/29 00:57:41;;;;;;;13.50;3.07;;;10.60;99.90;;;;;;5053304;28;20203;-76
2021/03/29 01:00:16;;;;;;;11.77;3.73;;;10.50;99.90;;;;;;5051551;28;20650;-78
2021/03/29 01:02:42;;;;;;;9.37;3.27;;;10.50;99.90;;;;;;5059778;28;20293;-77
2021/03/29 01:05:15;;;;;;;10.23;3.63;;;10.50;99.90;;;;;;5037582;28;20292;-78
2021/03/29 01:07:43;;;;;;;12.87;3.37;;;10.50;99.90;;;;;;5064278;28;20221;-77
2021/03/29 01:10:12;;;;;;;11.40;3.53;;;10.50;99.90;;;;;;5050584;28;20212;-78
2021/03/29 01:12:40;;;;;;;8.33;3.10;;;10.60;99.90;;;;;;5059244;28;20290;-78
2021/03/29 01:15:08;;;;;;;10.00;3.13;;;10.60;99.90;;;;;;5058477;28;20640;-77
2021/03/29 01:17:38;;;;;;;10.20;3.17;;;10.60;99.90;;;;;;5050594;28;20208;-77
2021/03/29 01:20:13;;;;;;;9.67;3.57;;;10.60;99.90;;;;;;5058243;28;20236;-76
2021/03/29 01:22:42;;;;;;;8.47;3.13;;;10.60;99.90;;;;;;5053927;28;20215;-80
2021/03/29 01:25:13;;;;;;;9.70;3.43;;;10.60;99.90;;;;;;5051664;28;20211;-79
2021/03/29 01:27:43;;;;;;;10.17;3.17;;;10.70;99.90;;;;;;5069246;28;20195;-78
2021/03/29 01:30:12;;;;;;;17.07;3.90;;;10.70;99.90;;;;;;5060553;28;20224;-77
2021/03/29 01:32:40;;;;;;;11.83;3.60;;;10.80;99.90;;;;;;5067056;28;20667;-78
2021/03/29 01:35:12;;;;;;;10.53;3.20;;;10.80;99.90;;;;;;5063879;28;20195;-78
2021/03/29 01:37:41;;;;;;;12.63;3.97;;;10.80;99.90;;;;;;5065524;28;20225;-79
2021/03/29 01:40:09;;;;;;;10.67;3.23;;;10.80;99.90;;;;;;5071425;28;20226;-79
2021/03/29 01:42:35;;;;;;;8.77;3.20;;;10.70;99.90;;;;;;5055875;28;20205;-79
2021/03/29 01:45:04;;;;;;;10.40;3.33;;;10.60;99.90;;;;;;5052903;28;20253;-79
2021/03/29 01:47:31;;;;;;;20.03;3.63;;;10.60;99.90;;;;;;5052388;28;20567;-78
2021/03/29 01:49:58;;;;;;;9.10;3.30;;;10.50;99.90;;;;;;5068730;28;20293;-79
2021/03/29 01:52:24;;;;;;;15.03;3.37;;;10.40;99.90;;;;;;5065659;28;20289;-78
2021/03/29 01:54:52;;;;;;;8.37;3.47;;;10.40;99.90;;;;;;5060791;28;20221;-79
2021/03/29 01:57:19;;;;;;;10.87;3.13;;;10.40;99.90;;;;;;5081186;28;20250;-78
2021/03/29 01:59:46;;;;;;;12.60;3.67;;;10.40;99.90;;;;;;5076571;28;20230;-77
2021/03/29 02:02:13;;;;;;;8.93;2.90;;;10.40;99.90;;;;;;5093309;28;20222;-77
2021/03/29 02:04:40;;;;;;;9.47;3.20;;;10.40;99.90;;;;;;5078111;28;20194;-78
2021/03/29 02:07:08;;;;;;;14.70;3.17;;;10.40;99.90;;;;;;5082274;28;20204;-77
2021/03/29 02:09:35;;;;;;;7.13;3.27;;;10.30;99.90;;;;;;5072715;28;20197;-77
2021/03/29 02:12:04;;;;;;;11.20;2.93;;;10.40;99.90;;;;;;5083296;28;20198;-79
2021/03/29 02:14:31;;;;;;;8.40;2.83;;;10.30;99.90;;;;;;5066057;28;20208;-78
2021/03/29 02:16:59;;;;;;;9.33;3.27;;;10.20;99.90;;;;;;5061754;28;20221;-77
2021/03/29 02:19:28;;;;;;;10.10;3.43;;;10.20;99.90;;;;;;5056400;28;20293;-78
2021/03/29 02:21:56;;;;;;;11.07;2.80;;;10.10;99.90;;;;;;5056311;28;20226;-77
2021/03/29 02:24:23;;;;;;;8.43;2.83;;;10.10;99.90;;;;;;5056773;28;20245;-79
2021/03/29 02:26:50;;;;;;;7.33;2.57;;;10.00;99.90;;;;;;5068103;28;20300;-79
2021/03/29 02:29:19;;;;;;;10.73;2.83;;;10.00;99.90;;;;;;5076062;28;20233;-79
2021/03/29 02:31:46;;;;;;;8.10;2.83;;;10.00;99.90;;;;;;5061476;28;20610;-78
2021/03/29 02:34:15;;;;;;;10.87;2.97;;;10.00;99.90;;;;;;5067924;28;20196;-79
2021/03/29 02:36:43;;;;;;;9.63;2.90;;;10.00;99.90;;;;;;5064140;28;20279;-79
2021/03/29 02:39:10;;;;;;;11.53;2.87;;;10.00;99.90;;;;;;5046236;28;20293;-79
2021/03/29 02:41:39;;;;;;;8.70;2.70;;;10.00;99.90;;;;;;5067958;28;20310;-79
2021/03/29 02:44:07;;;;;;;11.03;2.83;;;10.00;99.90;;;;;;5066437;28;20210;-79
2021/03/29 02:46:34;;;;;;;9.17;2.53;;;10.10;99.90;;;;;;5064823;28;20208;-78
2021/03/29 02:49:05;;;;;;;9.67;2.90;;;10.00;99.90;;;;;;5065877;28;20198;-79
2021/03/29 02:51:32;;;;;;;10.80;2.90;;;10.00;99.90;;;;;;5071184;28;20203;-78
2021/03/29 02:54:02;;;;;;;7.57;2.77;;;10.00;99.90;;;;;;5068324;28;20204;-78
2021/03/29 02:56:32;;;;;;;4.97;2.33;;;10.00;99.90;;;;;;5061522;28;20295;-78
2021/03/29 02:59:01;;;;;;;11.17;2.60;;;9.90;99.90;;;;;;5061530;28;20213;-78
2021/03/29 03:01:30;;;;;;;10.80;3.40;;;9.80;99.90;;;;;;5065560;28;20228;-79
2021/03/29 03:03:57;;;;;;;10.57;2.60;;;9.80;99.90;;;;;;5071663;28;20210;-79
2021/03/29 03:06:26;;;;;;;11.57;2.67;;;9.80;99.90;;;;;;5072412;28;20202;-79
2021/03/29 03:08:53;;;;;;;11.03;2.63;;;9.90;99.90;;;;;;5072589;28;20212;-79
2021/03/29 03:11:21;;;;;;;7.47;2.10;;;9.90;99.90;;;;;;5058579;28;20287;-79
2021/03/29 03:13:49;;;;;;;7.70;2.23;;;9.90;99.90;;;;;;5073120;28;20691;-79
2021/03/29 03:16:15;;;;;;;11.27;2.33;;;9.90;99.90;;;;;;5059930;28;20230;-79
2021/03/29 03:18:42;;;;;;;9.77;3.00;;;9.80;99.90;;;;;;5067742;28;20292;-79
2021/03/29 03:21:14;;;;;;;10.77;2.47;;;9.80;99.90;;;;;;5068908;28;20328;-78
2021/03/29 03:23:51;;;;;;;5.80;2.40;;;9.90;99.90;;;;;;5075592;28;20294;-79
2021/03/29 03:26:17;;;;;;;16.40;2.93;;;9.80;99.90;;;;;;5073657;28;20206;-80
2021/03/29 03:28:45;;;;;;;8.33;2.83;;;9.80;99.90;;;;;;5057354;28;20243;-79
2021/03/29 03:31:11;;;;;;;10.10;2.63;;;9.80;99.90;;;;;;5068789;28;20255;-79
2021/03/29 03:33:38;;;;;;;10.27;2.53;;;9.80;99.90;;;;;;5067946;28;20225;-78
2021/03/29 03:36:05;;;;;;;9.00;2.60;;;9.70;99.90;;;;;;5066059;28;20267;-80
2021/03/29 03:38:35;;;;;;;10.30;2.67;;;9.70;99.90;;;;;;5064092;28;20209;-78
2021/03/29 03:41:04;;;;;;;7.27;2.30;;;9.70;99.90;;;;;;5067134;28;20281;-79
2021/03/29 03:43:34;;;;;;;9.73;2.60;;;9.80;99.90;;;;;;5065048;28;20316;-78
2021/03/29 03:46:05;;;;;;;9.77;2.80;;;9.80;99.90;;;;;;5041286;28;20202;-79
2021/03/29 03:48:32;;;;;;;7.40;2.50;;;9.70;99.90;;;;;;5061324;28;20205;-78
2021/03/29 03:50:59;;;;;;;8.57;2.70;;;9.60;99.90;;;;;;5072968;28;20202;-78
2021/03/29 03:53:28;;;;;;;9.13;3.00;;;9.60;99.90;;;;;;5069598;28;20234;-78
2021/03/29 03:55:56;;;;;;;9.67;2.93;;;9.60;99.90;;;;;;5060665;28;20220;-78
2021/03/29 03:58:23;;;;;;;5.80;2.17;;;9.60;99.90;;;;;;5070052;28;20283;-80
2021/03/29 04:00:49;;;;;;;12.30;2.80;;;9.50;99.90;;;;;;5064347;28;20258;-78
2021/03/29 04:03:17;;;;;;;10.17;2.70;;;9.50;99.90;;;;;;5059474;28;20596;-79
2021/03/29 04:05:43;;;;;;;11.90;2.70;;;9.50;99.90;;;;;;5059473;28;20213;-79
2021/03/29 04:08:10;;;;;;;13.50;2.90;;;9.50;99.90;;;;;;5073471;28;20198;-79
2021/03/29 04:10:42;;;;;;;9.00;3.07;;;9.40;99.90;;;;;;5061780;28;20197;-79
2021/03/29 04:13:11;;;;;;;8.37;2.80;;;9.40;99.90;;;;;;5065765;28;20294;-78
2021/03/29 04:15:38;;;;;;;6.27;2.43;;;9.40;99.90;;;;;;5073512;28;20212;-78
2021/03/29 04:18:05;;;;;;;7.93;2.40;;;9.40;99.90;;;;;;5062616;28;20252;-78
2021/03/29 04:20:33;;;;;;;9.40;2.37;;;9.30;99.90;;;;;;5057715;28;20290;-79
2021/03/29 04:22:59;;;;;;;13.20;3.13;;;9.30;99.90;;;;;;5056270;28;20281;-79
2021/03/29 04:25:26;;;;;;;14.87;2.90;;;9.30;99.90;;;;;;5058094;28;20239;-80
2021/03/29 04:27:52;;;;;;;9.97;2.40;;;9.40;99.90;;;;;;5063442;28;20214;-79
2021/03/29 04:30:20;;;;;;;12.30;2.73;;;9.30;99.90;;;;;;5069889;28;20646;-79
2021/03/29 04:32:47;;;;;;;9.20;2.63;;;9.40;99.90;;;;;;5062462;28;20698;-80
2021/03/29 04:35:16;;;;;;;9.03;2.80;;;9.30;99.90;;;;;;5071726;28;20199;-79
2021/03/29 04:37:43;;;;;;;11.50;2.93;;;9.40;99.90;;;;;;5053701;28;20199;-78
2021/03/29 04:40:11;;;;;;;9.03;2.40;;;9.40;99.90;;;;;;5066929;28;20296;-79
2021/03/29 04:42:38;;;;;;;10.53;2.67;;;9.40;99.90;;;;;;5053649;28;20284;-79
2021/03/29 04:45:07;;;;;;;10.87;2.57;;;9.40;99.90;;;;;;5072947;28;20208;-79
2021/03/29 04:47:34;;;;;;;8.10;2.60;;;9.40;99.90;;;;;;5067668;28;20206;-79
2021/03/29 04:50:00;;;;;;;12.30;3.00;;;9.50;99.90;;;;;;5065505;28;20225;-78
2021/03/29 04:52:27;;;;;;;8.77;3.17;;;9.40;99.90;;;;;;5063231;28;20217;-78
2021/03/29 04:54:54;;;;;;;10.17;2.70;;;9.50;99.90;;;;;;5054962;28;20223;-80
2021/03/29 04:57:20;;;;;;;10.27;3.13;;;9.50;99.90;;;;;;5071277;28;20244;-80
2021/03/29 04:59:47;;;;;;;11.07;3.20;;;9.50;99.90;;;;;;5065340;28;20199;-79
2021/03/29 05:02:13;;;;;;;8.60;2.37;;;9.50;99.90;;;;;;5067263;28;20226;-79
2021/03/29 05:04:40;;;;;;;9.73;2.90;;;9.50;99.90;;;;;;5063856;28;20255;-80
2021/03/29 05:07:09;;;;;;;12.90;3.10;;;9.40;99.90;;;;;;5073073;28;20231;-80
2021/03/29 05:09:36;;;;;;;10.63;2.60;;;9.40;99.90;;;;;;5069020;28;20206;-79
2021/03/29 05:12:08;;;;;;;10.23;2.70;;;9.30;99.90;;;;;;5053012;28;20664;-78
2021/03/29 05:14:35;;;;;;;9.33;3.13;;;9.20;99.90;;;;;;5059589;28;20202;-80
2021/03/29 05:17:02;;;;;;;11.57;3.10;;;9.20;99.90;;;;;;5052278;28;20737;-78
2021/03/29 05:19:28;;;;;;;11.50;2.80;;;9.20;99.90;;;;;;5053408;28;20784;-78
2021/03/29 05:21:54;;;;;;;13.82;3.30;;;9.20;99.90;;;;;;5051808;28;20554;-79
2021/03/29 05:24:21;;;;;;;15.80;3.30;;;9.20;99.90;;;;;;5060770;28;20226;-78
2021/03/29 05:26:47;;;;;;;11.67;3.00;;;9.20;99.90;;;;;;5061011;28;20651;-79
2021/03/29 05:29:15;;;;;;;9.33;3.43;;;9.30;99.90;;;;;;5065927;28;20218;-78
2021/03/29 05:31:41;;;;;;;9.47;2.83;;;9.30;99.90;;;;;;5061981;28;20205;-78
2021/03/29 05:34:10;;;;;;;10.90;3.07;;;9.20;99.90;;;;;;5065903;28;20230;-78
2021/03/29 05:36:36;;;;;;;6.27;2.60;;;9.30;99.90;;;;;;5062275;28;20323;-78
2021/03/29 05:39:04;;;;;;;11.27;2.90;;;9.30;99.90;;;;;;5052824;28;20366;-79
2021/03/29 05:41:30;;;;;;;10.53;3.07;;;9.20;99.90;;;;;;5042840;28;20225;-80
2021/03/29 05:43:57;;;;;;;6.83;2.87;;;9.20;99.90;;;;;;5056290;28;20230;-76
2021/03/29 05:46:24;;;;;;;10.73;3.13;;;9.30;99.90;;;;;;5058436;28;20221;-81
2021/03/29 05:48:51;;;;;;;8.80;2.77;;;9.30;99.90;;;;;;5049345;28;20276;-79
2021/03/29 05:51:17;;;;;;;7.83;2.70;;;9.30;99.90;;;;;;5050988;28;20262;-79
2021/03/29 05:53:44;;;;;;;18.33;3.17;;;9.30;99.90;;;;;;5054993;28;20201;-79
2021/03/29 05:56:12;;;;;;;15.37;3.10;;;9.40;99.90;;;;;;5051769;28;20229;-79
2021/03/29 05:58:42;;;;;;;10.43;2.60;;;9.40;99.90;;;;;;5048217;28;20206;-79
2021/03/29 06:01:09;;;;;;;9.93;3.53;;;9.50;99.90;;;;;;5057008;28;20703;-79
2021/03/29 06:03:37;;;;;;;6.53;2.40;;;9.60;99.90;;;;;;5050803;28;20297;-79
2021/03/29 06:06:18;;;;;;;9.83;3.00;;;9.60;99.90;;;;;;5062413;28;20201;-79
2021/03/29 06:08:46;;;;;;;12.97;2.70;;;9.70;99.90;;;;;;5051134;28;20224;-79
2021/03/29 06:11:24;;;;;;;13.53;2.90;;;9.80;99.90;;;;;;5057509;28;20578;-79
2021/03/29 06:14:12;;;;;;;10.85;3.40;;;9.80;99.90;;;;;;5050274;28;20880;-79
2021/03/29 06:16:59;;;;;;;10.73;2.63;;;9.80;99.90;;;;;;5049419;28;20235;-78
2021/03/29 06:19:49;;;;;;;11.37;2.73;;;10.00;99.90;;;;;;5045233;28;20195;-80
2021/03/29 06:22:23;;;;;;;9.47;2.70;;;10.00;99.90;;;;;;5043807;28;20204;-79
2021/03/29 06:25:05;;;;;;;9.97;2.50;;;10.10;99.90;;;;;;5059148;28;20228;-81
2021/03/29 06:27:33;;;;;;;11.43;3.00;;;10.10;99.90;;;;;;5063481;28;20221;-78
2021/03/29 06:30:24;;;;;;;9.37;2.70;;;10.20;99.90;;;;;;5067355;28;20210;-78
2021/03/29 06:32:59;;;;;;;11.87;2.80;;;10.20;99.90;;;;;;5054135;28;20207;-78
2021/03/29 06:35:31;;;;;;;10.50;3.13;;;10.30;99.90;;;;;;5061192;28;20285;-79
2021/03/29 06:38:08;;;;;;;6.50;2.40;;;10.40;99.90;;;;;;5053965;28;20186;-77
2021/03/29 06:40:35;;;;;;;9.17;2.43;;;10.30;99.90;;;;;;5051953;28;20271;-78
2021/03/29 06:43:19;;;;;;;8.30;2.53;;;10.30;99.90;;;;;;5052365;28;20308;-79
2021/03/29 06:45:46;;;;;;;14.00;3.10;;;10.40;99.90;;;;;;5047370;28;20267;-79
2021/03/29 06:48:31;;;;;;;14.73;3.07;;;10.50;99.90;;;;;;5044236;28;20283;-79
2021/03/29 06:51:06;;;;;;;14.77;2.80;;;10.60;99.90;;;;;;5039158;28;20298;-78
2021/03/29 06:53:33;;;;;;;11.37;2.60;;;10.60;99.90;;;;;;5046858;28;20287;-80
2021/03/29 06:56:28;;;;;;;10.43;2.93;;;10.60;99.90;;;;;;5052826;28;20248;-80
2021/03/29 06:58:57;;;;;;;7.53;3.00;;;10.70;99.90;;;;;;5055288;28;20225;-78
2021/03/29 07:01:25;;;;;;;10.70;2.63;;;10.80;99.90;;;;;;5050126;28;20230;-78
2021/03/29 07:03:53;;;;;;;11.77;2.90;;;10.90;99.90;;;;;;5058002;28;20291;-78
2021/03/29 07:06:24;;;;;;;13.60;3.10;;;11.00;99.90;;;;;;5055887;28;20289;-78
2021/03/29 07:08:52;;;;;;;10.07;2.83;;;11.00;99.90;;;;;;5046485;28;20211;-79
2021/03/29 07:11:20;;;;;;;7.30;2.73;;;11.00;99.90;;;;;;5056691;28;20306;-79
2021/03/29 07:13:48;;;;;;;12.67;3.30;;;11.00;99.90;;;;;;5039914;28;20652;-78
2021/03/29 07:16:14;;;;;;;10.20;2.73;;;11.00;99.90;;;;;;5052988;28;20188;-78
2021/03/29 07:18:42;;;;;;;12.13;2.70;;;11.10;99.90;;;;;;5053343;28;20268;-77
2021/03/29 07:21:11;;;;;;;13.93;3.20;;;11.20;99.90;;;;;;5057576;28;20639;-79
2021/03/29 07:23:39;;;;;;;9.30;2.50;;;11.20;99.90;;;;;;5047877;28;20231;-79
2021/03/29 07:26:26;;;;;;;11.47;2.97;;;11.30;99.90;;;;;;5051645;28;20705;-79
2021/03/29 07:28:52;;;;;;;14.67;3.37;;;11.40;99.90;;;;;;5059311;28;20749;-77
2021/03/29 07:31:38;;;;;;;8.37;2.70;;;11.50;99.90;;;;;;5048358;28;20207;-79
2021/03/29 07:34:05;;;;;;;15.63;3.10;;;11.50;99.90;;;;;;5058941;28;20200;-81
2021/03/29 07:36:48;;;;;;;12.10;3.00;;;11.60;99.90;;;;;;5061317;28;20210;-78
2021/03/29 07:39:21;;;;;;;10.53;2.97;;;11.70;99.90;;;;;;5056631;28;20187;-78
2021/03/29 07:41:48;;;;;;;13.57;3.00;;;11.80;99.90;;;;;;5055774;28;20247;-78
2021/03/29 07:44:18;;;;;;;13.23;3.70;;;11.80;99.90;;;;;;5053328;28;20292;-78
2021/03/29 07:46:49;;;;;;;8.87;2.70;;;11.90;99.90;;;;;;5061875;28;20196;-81
2021/03/29 07:49:41;;;;;;;22.47;3.53;;;11.90;99.90;;;;;;5055370;28;20211;-80
2021/03/29 07:52:31;;;;;;;9.60;3.00;;;11.90;99.90;;;;;;5058114;28;20218;-77
2021/03/29 07:55:00;;;;;;;16.97;3.17;;;12.00;99.90;;;;;;5043435;28;20200;-79
2021/03/29 07:58:04;;;;;;;13.00;3.03;;;12.10;99.90;;;;;;5060176;28;20749;-76
2021/03/29 08:00:58;;;;;;;12.93;2.97;;;12.10;99.90;;;;;;5046634;28;20285;-79
2021/03/29 08:03:40;;;;;;;11.80;2.67;;;12.20;99.90;;;;;;5046603;28;20728;-79
2021/03/29 08:06:08;;;;;;;9.50;2.67;;;12.20;99.90;;;;;;5050211;28;20210;-78
2021/03/29 08:08:41;;;;;;;12.10;3.23;;;12.20;99.90;;;;;;5061932;28;20281;-78
2021/03/29 08:11:12;;;;;;;12.40;3.23;;;12.40;99.90;;;;;;5066363;28;20199;-78
2021/03/29 08:13:40;;;;;;;10.47;2.90;;;12.40;99.90;;;;;;5062016;28;20194;-78
2021/03/29 08:16:09;;;;;;;9.33;3.00;;;12.50;99.90;;;;;;5055125;28;20234;-78
2021/03/29 08:19:10;;;;;;;10.33;3.33;;;12.60;99.90;;;;;;5060323;28;20257;-77
2021/03/29 08:21:45;;;;;;;7.17;3.00;;;12.70;99.90;;;;;;5057748;28;20759;-77
2021/03/29 08:24:20;;;;;;;10.63;3.00;;;12.80;99.90;;;;;;5066473;28;20195;-76
2021/03/29 08:26:48;;;;;;;10.33;3.07;;;12.80;99.90;;;;;;5052236;28;20203;-78
2021/03/29 08:29:28;;;;;;;8.97;2.70;;;12.90;99.90;;;;;;5052191;28;20402;-79
2021/03/29 08:32:14;;;;;;;12.03;2.30;;;13.00;99.90;;;;;;5076138;28;20206;-76
2021/03/29 08:34:59;;;;;;;9.70;2.37;;;13.10;99.90;;;;;;5087231;28;20210;-79
2021/03/29 08:37:31;;;;;;;7.83;2.80;;;13.20;99.90;;;;;;5080391;28;20188;-78
2021/03/29 08:40:00;;;;;;;10.07;2.90;;;13.30;99.90;;;;;;5059680;28;20270;-78
2021/03/29 08:42:30;;;;;;;7.10;2.37;;;13.40;99.90;;;;;;5065817;28;20212;-79
2021/03/29 08:44:56;;;;;;;9.53;2.43;;;13.40;99.90;;;;;;5046190;28;20223;-78
2021/03/29 08:47:27;;;;;;;5.67;2.37;;;13.40;99.90;;;;;;5053237;28;20737;-78
2021/03/29 08:49:57;;;;;;;9.07;2.63;;;13.50;99.90;;;;;;5056026;28;20207;-76
2021/03/29 08:52:24;;;;;;;11.80;2.77;;;13.70;99.90;;;;;;5067634;28;20227;-78
2021/03/29 08:54:54;;;;;;;9.60;2.80;;;13.70;99.90;;;;;;5052835;28;20196;-78
2021/03/29 08:57:31;;;;;;;4.70;2.50;;;13.80;99.90;;;;;;5044741;28;20204;-79
2021/03/29 08:59:59;;;;;;;9.77;2.90;;;13.90;99.90;;;;;;5040117;28;20661;-77
2021/03/29 09:02:27;;;;;;;12.27;3.37;;;14.00;99.90;;;;;;5055049;28;20293;-78
2021/03/29 09:04:56;;;;;;;12.27;2.90;;;14.00;99.90;;;;;;5052395;28;20204;-76
2021/03/29 09:07:29;;;;;;;6.87;2.50;;;14.10;99.90;;;;;;5049797;28;20192;-78
2021/03/29 09:09:57;;;;;;;7.63;2.47;;;14.20;99.90;;;;;;5044259;28;20197;-77
2021/03/29 09:12:30;;;;;;;9.63;2.57;;;14.30;99.90;;;;;;5031910;28;20247;-77
2021/03/29 09:14:57;;;;;;;9.67;2.57;;;14.40;99.90;;;;;;5041240;28;20182;-77
2021/03/29 09:17:26;;;;;;;9.37;2.90;;;14.50;99.90;;;;;;5051905;28;20287;-79
2021/03/29 09:19:53;;;;;;;8.17;2.60;;;14.60;99.90;;;;;;5043157;28;20204;-79
2021/03/29 09:22:30;;;;;;;10.80;2.70;;;14.60;99.90;;;;;;5059426;28;20223;-78
2021/03/29 09:24:58;;;;;;;8.80;2.80;;;14.80;99.90;;;;;;5048289;28;20204;-78
2021/03/29 09:27:31;;;;;;;7.20;2.60;;;15.00;99.90;;;;;;5052081;28;20199;-77
2021/03/29 09:29:59;;;;;;;6.53;2.13;;;15.50;99.90;;;;;;5053238;28;20231;-77
2021/03/29 09:32:26;;;;;;;7.50;2.60;;;16.30;99.90;;;;;;5054745;28;20672;-79
2021/03/29 09:34:54;;;;;;;7.97;2.90;;;17.10;99.90;;;;;;5071589;28;20187;-78
2021/03/29 09:37:23;;;;;;;8.10;2.40;;;17.80;99.90;;;;;;5057132;28;20265;-77
2021/03/29 09:39:57;;;;;;;6.83;2.77;;;18.70;99.90;;;;;;5070225;28;20196;-77
2021/03/29 09:42:36;;;;;;;5.77;2.13;;;19.60;99.90;;;;;;5056361;28;20221;-78
2021/03/29 09:45:04;;;;;;;6.63;2.37;;;20.40;99.90;;;;;;5042760;28;20192;-77
2021/03/29 09:47:30;;;;;;;7.57;3.07;;;20.80;99.90;;;;;;5052221;28;20242;-80
2021/03/29 09:49:57;;;;;;;8.70;2.63;;;21.00;99.90;;;;;;5063289;28;20204;-76
2021/03/29 09:52:34;;;;;;;8.37;3.00;;;21.50;99.90;;;;;;5063848;28;20200;-78
2021/03/29 09:55:01;;;;;;;9.43;2.90;;;21.60;99.90;;;;;;5048890;28;20234;-81
2021/03/29 09:57:27;;;;;;;7.57;2.40;;;21.80;99.90;;;;;;5050707;28;20211;-78
2021/03/29 09:59:56;;;;;;;9.90;3.47;;;21.80;99.90;;;;;;5052589;28;20322;-76
2021/03/29 10:02:25;;;;;;;11.13;2.60;;;22.30;99.90;;;;;;5052312;28;20234;-77
2021/03/29 10:05:00;;;;;;;8.47;2.97;;;22.60;99.90;;;;;;5066748;28;20716;-77
2021/03/29 10:07:27;;;;;;;7.60;2.73;;;23.00;99.90;;;;;;5056969;28;20201;-80
2021/03/29 10:09:59;;;;;;;6.30;2.77;;;23.20;99.90;;;;;;5067640;28;20279;-78
2021/03/29 10:12:30;;;;;;;7.07;2.87;;;23.50;99.90;;;;;;5055421;28;20235;-79
2021/03/29 10:15:08;;;;;;;9.13;2.73;;;23.40;99.90;;;;;;5053270;28;20196;-78
2021/03/29 10:17:36;;;;;;;7.00;2.77;;;23.40;99.90;;;;;;5057857;28;20192;-78
2021/03/29 10:20:07;;;;;;;6.77;2.80;;;23.80;99.90;;;;;;5061043;28;21827;-78
2021/03/29 10:22:34;;;;;;;8.90;2.73;;;23.50;99.90;;;;;;5053987;28;20225;-79
2021/03/29 10:25:05;;;;;;;8.87;2.90;;;23.50;99.90;;;;;;5062615;28;20203;-80
2021/03/29 10:27:44;;;;;;;11.13;3.40;;;23.50;99.90;;;;;;5051446;28;20196;-79
2021/03/29 10:30:13;;;;;;;5.13;2.77;;;23.50;99.90;;;;;;5052921;28;20199;-83
2021/03/29 10:32:40;;;;;;;6.30;2.77;;;23.50;99.90;;;;;;5050977;28;20275;-79
2021/03/29 10:35:07;;;;;;;11.47;3.33;;;23.50;99.90;;;;;;5053921;28;20295;-81
2021/03/29 10:37:33;;;;;;;6.07;2.90;;;23.70;99.90;;;;;;5055323;28;20330;-80
2021/03/29 10:40:02;;;;;;;5.53;2.83;;;23.60;99.90;;;;;;5062621;28;20195;-78
2021/03/29 10:42:33;;;;;;;14.33;3.30;;;23.50;99.90;;;;;;5060920;28;20222;-78
2021/03/29 10:45:00;;;;;;;7.47;2.90;;;23.80;99.90;;;;;;5063717;28;20196;-79
2021/03/29 10:47:26;;;;;;;6.67;2.67;;;24.10;99.90;;;;;;5048455;28;20197;-79
2021/03/29 10:49:54;;;;;;;7.00;2.60;;;23.80;99.90;;;;;;5055240;28;20644;-78
2021/03/29 10:52:21;;;;;;;7.53;2.60;;;24.10;99.90;;;;;;5054089;28;20291;-80
2021/03/29 10:54:48;;;;;;;5.68;2.72;;;24.60;99.90;;;;;;5041540;28;20200;-78
2021/03/29 10:57:14;;;;;;;9.70;2.97;;;24.90;99.90;;;;;;5046014;28;20193;-78
2021/03/29 10:59:41;;;;;;;7.90;3.03;;;25.30;99.90;;;;;;5051958;28;20293;-77
2021/03/29 11:02:07;;;;;;;6.28;2.95;;;25.00;99.80;;;;;;5039511;28;20676;-78
2021/03/29 11:04:34;;;;;;;6.47;2.97;;;25.30;99.20;;;;;;5041591;28;20295;-78
2021/03/29 11:07:01;;;;;;;7.10;2.72;;;25.00;99.40;;;;;;5041801;28;20203;-77
2021/03/29 11:09:27;;;;;;;8.30;3.20;;;25.40;99.20;;;;;;5054533;28;20232;-76
2021/03/29 11:11:55;;;;;;;7.75;2.80;;;25.20;99.10;;;;;;5053695;28;20269;-77
2021/03/29 11:14:22;;;;;;;11.15;3.63;;;25.20;99.10;;;;;;5049931;28;20204;-76
2021/03/29 11:16:50;;;;;;;6.20;3.13;;;24.70;98.30;;;;;;5053227;28;20283;-77
2021/03/29 11:19:17;;;;;;;7.60;3.53;;;24.70;99.30;;;;;;5066395;28;20631;-77
2021/03/29 11:21:43;;;;;;;8.05;2.95;;;24.40;99.10;;;;;;5062426;28;20189;-76
2021/03/29 11:24:11;;;;;;;12.10;3.10;;;24.50;99.50;;;;;;5063245;28;20193;-77
2021/03/29 11:26:38;;;;;;;8.65;3.30;;;24.40;99.10;;;;;;5059919;28;20201;-77
2021/03/29 11:29:04;;;;;;;8.98;3.10;;;24.50;98.80;;;;;;5068160;28;20224;-75
2021/03/29 11:31:31;;;;;;;9.48;3.20;;;24.40;99.10;;;;;;5070187;28;20690;-77
2021/03/29 11:33:57;;;;;;;10.52;3.50;;;25.00;99.10;;;;;;5052353;28;20276;-75
2021/03/29 11:36:24;;;;;;;5.90;3.10;;;25.10;99.00;;;;;;5055502;28;20692;-77
2021/03/29 11:38:51;;;;;;;7.75;3.13;;;25.20;98.90;;;;;;5060756;28;20661;-76
2021/03/29 11:41:19;;;;;;;8.30;3.50;;;25.40;98.50;;;;;;5052207;28;20295;-75
2021/03/29 11:43:46;;;;;;;6.88;3.25;;;24.90;98.30;;;;;;5054960;28;20197;-77
2021/03/29 11:46:12;;;;;;;8.60;3.40;;;24.70;99.10;;;;;;5062095;28;20196;-77
2021/03/29 11:48:39;;;;;;;7.65;3.22;;;24.80;99.10;;;;;;5039339;28;20702;-76
2021/03/29 11:51:06;;;;;;;12.45;3.15;;;24.60;98.50;;;;;;5044700;28;20299;-78
2021/03/29 11:53:34;;;;;;;7.43;2.92;;;24.20;97.30;;;;;;5034653;28;20323;-77
2021/03/29 11:56:00;;;;;;;11.15;2.90;;;23.90;96.40;;;;;;5038886;28;20200;-76
2021/03/29 11:58:28;;;;;;;5.90;2.78;;;23.70;98.20;;;;;;5057200;28;20235;-78
2021/03/29 12:00:58;;;;;;;11.13;3.28;;;23.70;98.70;;;;;;5050407;28;20192;-76
2021/03/29 12:03:28;;;;;;;7.15;2.75;;;23.90;98.80;;;;;;5053978;28;20261;-78
2021/03/29 12:05:57;;;;;;;4.72;3.10;;;24.00;96.90;;;;;;5072460;28;20196;-79
2021/03/29 12:08:30;;;;;;;9.30;3.88;;;24.00;97.20;;;;;;5065989;28;20294;-78
2021/03/29 12:13:43;;;;;;;12.80;3.50;;;24.10;98.10;;;;;;5031713;28;20243;-78
2021/03/29 12:16:12;;;;;;;6.88;3.03;;;24.00;97.30;;;;;;5046535;28;20204;-78
2021/03/29 12:18:46;;;;;;;6.35;3.20;;;23.70;97.00;;;;;;5051458;28;20728;-79
2021/03/29 12:21:17;;;;;;;6.35;3.72;;;23.60;97.70;;;;;;5050610;28;20234;-79
2021/03/29 12:23:47;;;;;;;8.80;3.00;;;23.60;98.30;;;;;;5049333;28;20200;-79
2021/03/29 12:26:14;;;;;;;9.45;3.60;;;23.60;99.00;;;;;;5046118;28;20253;-77
2021/03/29 12:28:45;;;;;;;8.45;3.47;;;23.50;98.80;;;;;;5057714;28;20211;-78
2021/03/29 12:31:13;;;;;;;5.70;3.33;;;23.50;98.80;;;;;;5046185;28;20236;-78
2021/03/29 12:33:41;;;;;;;10.20;3.75;;;23.70;98.50;;;;;;5043895;28;20224;-77
2021/03/29 12:36:08;;;;;;;9.48;3.85;;;23.80;99.10;;;;;;5051159;28;20291;-76
2021/03/29 12:38:39;;;;;;;6.78;3.58;;;23.70;99.20;;;;;;5038987;28;20635;-77
2021/03/29 12:41:08;;;;;;;9.02;3.60;;;23.80;99.10;;;;;;5045875;28;20208;-77
2021/03/29 12:43:38;;;;;;;11.00;3.70;;;23.80;99.60;;;;;;5049101;28;20592;-77
2021/03/29 12:46:07;;;;;;;8.45;3.60;;;23.50;99.20;;;;;;5039930;28;20650;-78
2021/03/29 12:48:36;;;;;;;11.68;3.85;;;23.50;99.50;;;;;;5040921;28;20200;-79
2021/03/29 12:51:04;;;;;;;7.53;3.50;;;23.60;99.00;;;;;;5037198;28;20608;-78
2021/03/29 12:53:32;;;;;;;9.25;4.07;;;23.40;99.20;;;;;;5042534;28;20311;-78
2021/03/29 12:55:58;;;;;;;10.90;3.80;;;23.10;99.70;;;;;;5052148;28;20705;-78
2021/03/29 12:58:25;;;;;;;7.03;3.70;;;23.10;99.90;;;;;;5043415;28;20235;-77
2021/03/29 13:00:53;;;;;;;8.82;4.10;;;23.00;99.60;;;;;;5047017;28;20216;-77